Patroon, Texas
Current Conditions -  °F | °C
As of 3:55 PM on Wednesday 28 Jan 2015 (Local Time) from KOCH Reporting Station
Clear Clear  
Wind Chill: 75°   Ceiling: Unl
Heat Index: 75°   Visibility: 10mi
Dew Point: 46°   Wind: 13mph
Humidity: 36%   Direction: 190°S
Pressure: 30.09"   Gusts: 18mph
Location:  31.7022°N, 93.9592°W
Report Text: KOCH 282155Z 19011G16KT 10SM CLR 24/08 A3009 RMK AO1
Loading
Personal Weather Stations






























Interactive Weather Map New forecast layout! Learn more

10-Day Weather Forecast

Advertisements
Track Severe Weather on mobile